Terminal Aerodrome Forecast
Issued by NWS Jacksonville, FL

Home | Current Version | Previous Version | Text Only | Print | Product List | Glossary On
Versions: 1 2 3 4 5 6 7 8 9 10 11 12 13 14 15 16 17 18 19
000
FTUS42 KJAX 241700 RRA
TAFJAX
TAF
KJAX 241741Z 2418/2518 11008KT P6SM BKN050
     FM250300 19005KT P6SM SCT060 SCT250
     FM250800 VRB02KT 4SM BR SCT015 BKN250
     FM251330 24010KT P6SM BKN015 BKN250=

USA.gov is the U.S. government's official web portal to all federal, state and local government web resources and services.